createdAt,value
2023-12-24T14:49:07.479Z,11.06
2023-12-24T14:59:07.653Z,11.10
2023-12-24T15:09:07.880Z,11.19
2023-12-24T15:19:08.199Z,11.31
2023-12-24T15:29:08.152Z,11.41
2023-12-24T15:39:08.373Z,11.38
2023-12-24T15:49:08.458Z,11.39
2023-12-24T15:59:08.737Z,11.38
2023-12-24T16:09:09.552Z,11.47
2023-12-24T16:19:09.003Z,11.53
2023-12-24T16:29:08.908Z,11.67
2023-12-24T16:39:09.131Z,11.64
2023-12-24T16:49:09.511Z,11.64
2023-12-24T16:59:09.763Z,11.57
2023-12-24T17:09:09.668Z,11.65
2023-12-24T17:19:09.987Z,11.77
2023-12-24T17:29:09.884Z,11.83
2023-12-24T17:39:10.170Z,11.87
2023-12-24T17:49:10.694Z,11.87
2023-12-24T17:59:10.502Z,12.04
2023-12-24T18:09:10.525Z,11.85
2023-12-24T18:19:11.047Z,11.96
2023-12-24T18:29:10.991Z,12.05
2023-12-24T18:39:11.329Z,12.01
2023-12-24T18:49:11.372Z,11.94
2023-12-24T18:59:12.131Z,11.93
2023-12-24T19:09:11.778Z,11.93
2023-12-24T19:19:11.910Z,11.97
2023-12-24T19:29:13.311Z,11.74
2023-12-24T19:39:13.200Z,11.71
2023-12-24T19:49:12.711Z,11.62
2023-12-24T19:59:12.537Z,11.77
2023-12-24T20:09:12.517Z,12.05
2023-12-24T20:19:12.916Z,12.05
2023-12-24T20:29:13.124Z,12.01
2023-12-24T20:39:13.037Z,12.02
2023-12-24T20:49:13.321Z,11.94
2023-12-24T20:59:13.638Z,12.06
2023-12-24T21:09:16.535Z,12.23
2023-12-24T21:19:13.907Z,11.90
2023-12-24T21:29:13.887Z,12.12
2023-12-24T21:39:14.083Z,11.86
2023-12-24T21:49:14.475Z,11.87
2023-12-24T21:59:14.375Z,11.57
2023-12-24T22:09:14.636Z,11.21
2023-12-24T22:19:15.038Z,11.07
2023-12-24T22:29:14.923Z,10.91
2023-12-24T22:39:15.132Z,10.89
2023-12-24T22:49:15.601Z,10.89
2023-12-24T22:59:15.469Z,10.96
2023-12-24T23:09:15.551Z,11.03
2023-12-24T23:19:15.851Z,10.98
2023-12-24T23:29:16.290Z,11.03
2023-12-24T23:39:16.188Z,10.88
2023-12-24T23:49:16.619Z,10.96
2023-12-24T23:59:16.410Z,10.86
